Time;durP1;ratioP1;P1;durP2;ratioP2;P2;SDS_P1;SDS_P2;PMS_P1;PMS_P2;Temp;Humidity;BMP_temperature;BMP_pressure;BME280_temperature;BME280_humidity;BME280_pressure;Samples;Min_cycle;Max_cycle;Signal;HPM_P1;HPM_P2
2022/08/27 00:01:34;;;;;;;2.10;1.90;;;20.20;99.90;;;;;;4972847;28;20217;-76
2022/08/27 00:04:01;;;;;;;2.10;2.00;;;20.20;99.90;;;;;;4973078;28;20204;-75
2022/08/27 00:06:28;;;;;;;2.17;1.75;;;20.30;99.90;;;;;;4974739;28;20272;-75
2022/08/27 00:08:55;;;;;;;2.03;1.80;;;20.60;99.90;;;;;;4972793;28;20194;-76
2022/08/27 00:11:25;;;;;;;2.05;1.88;;;20.80;99.90;;;;;;4972706;28;20209;-76
2022/08/27 00:13:53;;;;;;;1.63;1.52;;;21.00;99.90;;;;;;4970222;28;20240;-75
2022/08/27 00:16:20;;;;;;;2.00;1.80;;;21.20;99.90;;;;;;4971843;28;20634;-75
2022/08/27 00:18:48;;;;;;;2.33;1.52;;;21.30;99.90;;;;;;4971390;28;20213;-75
2022/08/27 00:21:16;;;;;;;1.60;1.50;;;21.40;99.90;;;;;;4972084;28;20671;-75
2022/08/27 00:23:43;;;;;;;1.60;1.50;;;21.50;99.90;;;;;;4980006;28;20201;-74
2022/08/27 00:26:10;;;;;;;2.40;1.60;;;21.60;99.90;;;;;;4972012;28;20226;-76
2022/08/27 00:28:40;;;;;;;2.20;1.77;;;21.60;99.90;;;;;;4968135;28;20198;-75
2022/08/27 00:31:07;;;;;;;1.70;1.60;;;21.60;99.90;;;;;;4970553;28;20708;-74
2022/08/27 00:33:35;;;;;;;2.08;1.60;;;21.60;99.90;;;;;;4971434;28;20204;-74
2022/08/27 00:36:02;;;;;;;1.73;1.60;;;21.50;99.90;;;;;;4969916;28;20240;-76
2022/08/27 00:38:30;;;;;;;1.85;1.75;;;21.40;99.90;;;;;;4970720;28;20709;-75
2022/08/27 00:40:58;;;;;;;1.98;1.70;;;21.40;99.90;;;;;;4970676;28;20218;-75
2022/08/27 00:43:27;;;;;;;1.95;1.75;;;21.30;99.90;;;;;;4969493;28;20229;-73
2022/08/27 00:46:02;;;;;;;2.03;1.67;;;21.20;99.90;;;;;;4970807;28;20235;-76
2022/08/27 00:48:33;;;;;;;1.98;1.88;;;20.90;99.90;;;;;;4968650;28;20595;-75
2022/08/27 00:51:00;;;;;;;1.75;1.50;;;20.70;99.90;;;;;;4966269;28;20716;-75
2022/08/27 00:53:32;;;;;;;1.60;1.50;;;20.70;99.90;;;;;;4969617;28;20202;-75
2022/08/27 00:56:04;;;;;;;1.90;1.80;;;20.70;99.90;;;;;;4967701;28;20237;-75
2022/08/27 00:58:34;;;;;;;1.60;1.50;;;20.80;99.90;;;;;;4971354;28;20695;-75
2022/08/27 01:01:05;;;;;;;1.38;1.33;;;20.90;99.90;;;;;;4970183;28;20299;-76
2022/08/27 01:03:34;;;;;;;2.30;1.63;;;21.00;99.90;;;;;;4973415;28;20193;-76
2022/08/27 01:06:02;;;;;;;2.17;1.98;;;21.10;99.90;;;;;;4971814;28;20312;-76
2022/08/27 01:08:33;;;;;;;1.40;1.30;;;20.90;99.90;;;;;;4971381;28;20281;-75
2022/08/27 01:11:01;;;;;;;1.67;1.52;;;20.50;99.90;;;;;;4970427;28;20213;-75
2022/08/27 01:13:32;;;;;;;2.25;1.63;;;20.50;99.90;;;;;;4970911;28;20201;-76
2022/08/27 01:16:14;;;;;;;2.08;1.83;;;20.50;99.90;;;;;;4971533;28;20228;-76
2022/08/27 01:18:43;;;;;;;2.63;1.50;;;20.60;99.90;;;;;;4970287;28;20240;-77
2022/08/27 01:21:19;;;;;;;1.58;1.48;;;20.60;99.90;;;;;;4973916;28;20217;-76
2022/08/27 01:23:53;;;;;;;1.45;1.38;;;20.70;99.90;;;;;;4976971;28;20201;-75
2022/08/27 01:26:23;;;;;;;2.88;1.77;;;20.70;99.90;;;;;;4969523;28;20590;-75
2022/08/27 01:28:51;;;;;;;2.05;1.88;;;20.60;99.90;;;;;;4970704;28;20198;-76
2022/08/27 01:31:19;;;;;;;1.60;1.50;;;20.40;99.90;;;;;;4972662;28;20774;-75
2022/08/27 01:33:55;;;;;;;2.05;1.60;;;20.30;99.90;;;;;;4970159;28;20202;-76
2022/08/27 01:36:22;;;;;;;1.60;1.50;;;20.20;99.90;;;;;;4969971;28;20256;-75
2022/08/27 01:38:49;;;;;;;1.77;1.67;;;20.20;99.90;;;;;;4971566;28;20659;-75
2022/08/27 01:41:17;;;;;;;1.63;1.52;;;20.20;99.90;;;;;;4974118;28;20229;-75
2022/08/27 01:43:45;;;;;;;2.20;2.05;;;20.30;99.90;;;;;;4971610;28;20202;-73
2022/08/27 01:46:12;;;;;;;2.10;1.90;;;20.20;99.90;;;;;;4972525;28;20225;-76
2022/08/27 01:48:39;;;;;;;2.03;1.90;;;20.20;99.90;;;;;;4971237;28;20201;-75
2022/08/27 01:51:08;;;;;;;2.35;1.83;;;20.10;99.90;;;;;;4971109;28;20221;-76
2022/08/27 01:53:35;;;;;;;1.80;1.70;;;20.10;99.90;;;;;;4975722;28;20289;-76
2022/08/27 01:56:03;;;;;;;3.05;1.75;;;20.10;99.90;;;;;;4973607;28;20288;-76
2022/08/27 01:58:32;;;;;;;1.65;1.55;;;20.00;99.90;;;;;;4974814;28;20674;-75
2022/08/27 02:01:05;;;;;;;1.60;1.50;;;20.10;99.90;;;;;;4975190;28;20715;-75
2022/08/27 02:03:35;;;;;;;1.80;1.70;;;20.00;99.90;;;;;;4971195;28;20672;-74
2022/08/27 02:06:06;;;;;;;1.60;1.50;;;20.10;99.90;;;;;;4973016;28;20736;-75
2022/08/27 02:08:33;;;;;;;1.65;1.55;;;20.10;99.90;;;;;;4974233;28;20201;-75
2022/08/27 02:11:01;;;;;;;2.20;2.00;;;20.20;99.90;;;;;;4972241;28;20224;-75
2022/08/27 02:13:28;;;;;;;2.10;1.70;;;20.30;99.90;;;;;;4973685;28;20248;-76
2022/08/27 02:15:56;;;;;;;1.90;1.80;;;20.30;99.90;;;;;;4971464;28;20596;-75
2022/08/27 02:18:24;;;;;;;3.17;2.00;;;20.30;99.90;;;;;;4972305;28;20198;-76
2022/08/27 02:20:51;;;;;;;1.60;1.50;;;20.30;99.90;;;;;;4972155;28;20456;-76
2022/08/27 02:23:19;;;;;;;1.80;1.70;;;20.40;99.90;;;;;;4974170;28;20295;-76
2022/08/27 02:25:46;;;;;;;1.75;1.65;;;20.40;99.90;;;;;;4973712;28;20253;-76
2022/08/27 02:28:13;;;;;;;1.88;1.77;;;20.40;99.90;;;;;;4974430;28;20276;-75
2022/08/27 02:30:40;;;;;;;1.88;1.60;;;20.40;99.90;;;;;;4973602;28;20221;-76
2022/08/27 02:33:07;;;;;;;1.80;1.60;;;20.40;99.90;;;;;;4968205;28;20193;-74
2022/08/27 02:35:37;;;;;;;1.90;1.80;;;20.40;99.90;;;;;;4972215;28;20757;-75
2022/08/27 02:38:05;;;;;;;2.03;1.83;;;20.50;99.90;;;;;;4973061;28;20767;-76
2022/08/27 02:40:32;;;;;;;1.85;1.70;;;20.40;99.90;;;;;;4975590;28;20314;-74
2022/08/27 02:42:59;;;;;;;1.55;1.45;;;20.50;99.90;;;;;;4971303;28;20288;-76
2022/08/27 02:45:26;;;;;;;1.80;1.70;;;20.40;99.90;;;;;;4973035;28;20225;-76
2022/08/27 02:47:53;;;;;;;1.83;1.73;;;20.40;99.90;;;;;;4973734;28;20213;-76
2022/08/27 02:50:21;;;;;;;1.73;1.63;;;20.40;99.90;;;;;;4972135;28;20229;-75
2022/08/27 02:52:49;;;;;;;1.50;1.40;;;20.40;99.90;;;;;;4973108;28;20660;-76
2022/08/27 02:55:17;;;;;;;1.50;1.40;;;20.40;99.90;;;;;;4972475;28;20741;-76
2022/08/27 02:57:45;;;;;;;1.40;1.30;;;20.40;99.90;;;;;;4976546;28;20205;-75
2022/08/27 03:00:14;;;;;;;1.48;1.38;;;20.40;99.90;;;;;;4973223;28;20838;-76
2022/08/27 03:02:42;;;;;;;1.50;1.40;;;20.40;99.90;;;;;;4969278;28;20218;-76
2022/08/27 03:05:11;;;;;;;1.40;1.30;;;20.40;99.90;;;;;;4972860;28;20230;-76
2022/08/27 03:07:39;;;;;;;1.50;1.40;;;20.40;99.90;;;;;;4969261;28;20772;-76
2022/08/27 03:10:09;;;;;;;1.80;1.70;;;20.40;99.90;;;;;;4971188;28;20544;-76
2022/08/27 03:12:37;;;;;;;1.60;1.50;;;20.40;99.90;;;;;;4976504;28;20208;-76
2022/08/27 03:15:04;;;;;;;1.73;1.63;;;20.30;99.90;;;;;;4973728;28;20649;-76
2022/08/27 03:20:17;;;;;;;1.60;1.50;;;20.30;99.90;;;;;;4972160;28;20287;-76
2022/08/27 03:22:44;;;;;;;1.60;1.50;;;20.30;99.90;;;;;;4972608;28;20224;-75
2022/08/27 03:25:13;;;;;;;1.52;1.42;;;20.30;99.90;;;;;;4971898;28;20228;-75
2022/08/27 03:27:40;;;;;;;1.60;1.50;;;20.30;99.90;;;;;;4973545;28;20197;-76
2022/08/27 03:30:11;;;;;;;1.55;1.48;;;20.30;99.90;;;;;;4971696;28;20229;-76
2022/08/27 03:32:38;;;;;;;2.75;1.73;;;20.30;99.90;;;;;;4967205;28;20672;-76
2022/08/27 03:35:07;;;;;;;1.50;1.40;;;20.30;99.90;;;;;;4971394;28;20230;-76
2022/08/27 03:37:34;;;;;;;2.65;1.65;;;20.30;99.90;;;;;;4973174;28;20205;-76
2022/08/27 03:40:01;;;;;;;1.60;1.50;;;20.20;99.90;;;;;;4969589;28;21728;-77
2022/08/27 03:42:30;;;;;;;1.70;1.60;;;20.20;99.90;;;;;;4973333;28;20222;-76
2022/08/27 03:44:57;;;;;;;1.75;1.65;;;20.20;99.90;;;;;;4972063;28;20303;-75
2022/08/27 03:47:24;;;;;;;2.35;1.65;;;20.20;99.90;;;;;;4972848;28;20198;-75
2022/08/27 03:49:51;;;;;;;1.60;1.50;;;20.10;99.90;;;;;;4972816;28;20226;-76
2022/08/27 03:52:19;;;;;;;1.60;1.50;;;20.10;99.90;;;;;;4973471;28;20197;-76
2022/08/27 03:54:46;;;;;;;1.60;1.50;;;20.00;99.90;;;;;;4976269;28;20312;-76
2022/08/27 03:57:14;;;;;;;1.85;1.75;;;19.90;99.90;;;;;;4973232;28;20209;-75
2022/08/27 03:59:42;;;;;;;1.60;1.50;;;19.90;99.90;;;;;;4973408;28;20220;-75
2022/08/27 04:02:09;;;;;;;1.67;1.58;;;19.80;99.90;;;;;;4967892;28;20229;-76
2022/08/27 04:04:36;;;;;;;1.38;1.27;;;19.80;99.90;;;;;;4971075;28;20602;-76
2022/08/27 04:07:04;;;;;;;1.60;1.50;;;19.80;99.90;;;;;;4971132;28;20205;-76
2022/08/27 04:09:31;;;;;;;1.60;1.50;;;19.90;99.90;;;;;;4968050;28;20229;-76
2022/08/27 04:11:58;;;;;;;1.50;1.40;;;19.90;99.90;;;;;;4972001;28;20683;-75
2022/08/27 04:14:25;;;;;;;1.23;1.20;;;19.90;99.90;;;;;;4972443;28;20267;-76
2022/08/27 04:16:54;;;;;;;2.45;1.70;;;19.90;99.90;;;;;;4969800;28;20198;-76
2022/08/27 04:19:21;;;;;;;1.70;1.60;;;19.90;99.90;;;;;;4968002;28;20288;-75
2022/08/27 04:21:49;;;;;;;1.63;1.52;;;19.90;99.90;;;;;;4968415;28;20198;-76
2022/08/27 04:24:16;;;;;;;1.58;1.48;;;19.80;99.90;;;;;;4965924;28;20221;-77
2022/08/27 04:26:44;;;;;;;1.60;1.50;;;19.80;99.90;;;;;;4971845;28;20202;-75
2022/08/27 04:29:11;;;;;;;1.50;1.40;;;19.70;99.90;;;;;;4969810;28;20568;-76
2022/08/27 04:31:38;;;;;;;1.42;1.33;;;19.70;99.90;;;;;;4970748;28;20571;-75
2022/08/27 04:34:07;;;;;;;1.48;1.38;;;19.80;99.90;;;;;;4968082;28;20230;-76
2022/08/27 04:36:34;;;;;;;1.35;1.25;;;19.80;99.90;;;;;;4971630;28;20221;-76
2022/08/27 04:39:01;;;;;;;1.50;1.40;;;19.80;99.90;;;;;;4970241;28;20208;-75
2022/08/27 04:41:32;;;;;;;1.52;1.30;;;19.90;99.90;;;;;;4977231;28;20216;-75
2022/08/27 04:44:06;;;;;;;1.42;1.33;;;19.90;99.90;;;;;;4969576;28;20695;-75
2022/08/27 04:46:36;;;;;;;1.63;1.52;;;19.80;99.90;;;;;;4968273;28;20209;-76
2022/08/27 04:49:07;;;;;;;1.67;1.58;;;19.70;99.90;;;;;;4970802;28;20288;-76
2022/08/27 04:51:35;;;;;;;1.60;1.50;;;19.70;99.90;;;;;;4970107;28;20209;-76
2022/08/27 04:54:02;;;;;;;1.67;1.38;;;19.70;99.90;;;;;;4970659;28;20201;-76
2022/08/27 04:56:30;;;;;;;1.52;1.42;;;19.80;99.90;;;;;;4970525;28;20276;-75
2022/08/27 04:58:57;;;;;;;1.65;1.55;;;19.90;99.90;;;;;;4971391;28;20202;-73
2022/08/27 05:01:26;;;;;;;1.63;1.52;;;19.90;99.90;;;;;;4968989;28;20229;-76
2022/08/27 05:03:54;;;;;;;1.35;1.25;;;20.00;99.90;;;;;;4969553;28;20224;-76
2022/08/27 05:06:24;;;;;;;1.40;1.30;;;20.10;99.90;;;;;;4970121;28;20228;-75
2022/08/27 05:08:52;;;;;;;1.75;1.65;;;20.20;99.90;;;;;;4966979;28;20198;-76
2022/08/27 05:11:21;;;;;;;1.73;1.45;;;20.20;99.90;;;;;;4969514;28;20217;-76
2022/08/27 05:13:49;;;;;;;1.67;1.55;;;20.40;99.90;;;;;;4969977;28;20190;-75
2022/08/27 05:16:18;;;;;;;1.70;1.60;;;20.60;99.90;;;;;;4965762;28;20222;-75
2022/08/27 05:18:46;;;;;;;1.42;1.40;;;20.70;99.90;;;;;;4971781;28;20202;-75
2022/08/27 05:21:17;;;;;;;1.60;1.50;;;20.80;99.90;;;;;;4968064;28;20221;-75
2022/08/27 05:23:46;;;;;;;2.05;1.40;;;20.90;99.90;;;;;;4969178;28;20210;-74
2022/08/27 05:26:14;;;;;;;1.50;1.40;;;21.00;99.90;;;;;;4972210;28;20947;-73
2022/08/27 05:28:41;;;;;;;1.77;1.40;;;21.00;99.90;;;;;;4978426;28;20216;-75
2022/08/27 05:31:10;;;;;;;1.73;1.15;;;21.10;99.90;;;;;;4978945;28;20225;-75
2022/08/27 05:33:39;;;;;;;1.50;1.40;;;21.20;99.90;;;;;;4971234;28;20204;-76
2022/08/27 05:36:08;;;;;;;1.60;1.50;;;21.20;99.90;;;;;;5026374;23;20241;-77
2022/08/27 05:38:35;;;;;;;1.48;1.38;;;21.10;99.90;;;;;;5029944;28;20208;-77
2022/08/27 05:41:07;;;;;;;1.85;1.75;;;21.10;99.90;;;;;;5026030;28;20251;-77
2022/08/27 05:43:35;;;;;;;1.73;1.63;;;21.10;99.90;;;;;;5027946;28;20220;-76
2022/08/27 05:46:05;;;;;;;2.80;1.50;;;21.00;99.90;;;;;;5024653;28;20216;-76
2022/08/27 05:48:33;;;;;;;1.70;1.60;;;21.20;99.90;;;;;;5012692;28;20295;-77
2022/08/27 05:51:08;;;;;;;1.48;1.38;;;21.40;99.90;;;;;;5016773;28;20705;-76
2022/08/27 05:53:35;;;;;;;1.88;1.70;;;21.60;99.90;;;;;;5010407;28;20192;-77
2022/08/27 05:56:03;;;;;;;1.73;1.63;;;21.60;99.90;;;;;;5012799;28;20232;-76
2022/08/27 06:01:17;;;;;;;1.70;1.60;;;21.40;99.90;;;;;;5010520;28;20735;-77
2022/08/27 06:03:45;;;;;;;2.10;1.90;;;21.50;99.90;;;;;;5014476;28;20212;-76
2022/08/27 06:06:13;;;;;;;1.92;1.83;;;21.60;99.90;;;;;;5012309;28;20308;-76
2022/08/27 06:08:40;;;;;;;2.88;2.05;;;21.60;99.90;;;;;;5011829;28;20314;-76
2022/08/27 06:11:10;;;;;;;1.92;1.83;;;21.50;99.90;;;;;;5013049;28;20231;-76
2022/08/27 06:13:37;;;;;;;2.08;1.98;;;21.40;99.90;;;;;;5012061;28;20196;-76
2022/08/27 06:16:06;;;;;;;2.15;1.95;;;21.40;99.90;;;;;;5011588;28;20231;-75
2022/08/27 06:18:33;;;;;;;1.70;1.60;;;21.50;99.90;;;;;;5009432;28;20569;-75
2022/08/27 06:21:01;;;;;;;2.05;1.90;;;21.60;99.90;;;;;;5009420;28;20223;-75
2022/08/27 06:23:29;;;;;;;2.78;1.88;;;21.70;99.90;;;;;;5011883;28;20698;-77
2022/08/27 06:25:56;;;;;;;2.60;1.70;;;21.80;99.90;;;;;;5008260;28;20217;-75
2022/08/27 06:28:28;;;;;;;1.98;1.88;;;21.80;99.90;;;;;;5013344;28;20226;-75
2022/08/27 06:31:03;;;;;;;1.90;1.80;;;21.90;99.90;;;;;;5007956;28;20757;-75
2022/08/27 06:33:31;;;;;;;2.78;2.20;;;21.90;99.90;;;;;;5011460;28;20679;-74
2022/08/27 06:35:59;;;;;;;1.85;1.75;;;21.90;99.90;;;;;;5009551;28;20235;-75
2022/08/27 06:38:27;;;;;;;2.28;2.08;;;21.80;99.90;;;;;;5011421;28;20650;-75
2022/08/27 06:40:55;;;;;;;2.28;2.05;;;21.60;99.90;;;;;;5009181;28;20215;-75
2022/08/27 06:43:24;;;;;;;2.13;1.88;;;21.50;99.90;;;;;;5010357;28;20222;-75
2022/08/27 06:45:52;;;;;;;2.03;1.85;;;21.50;99.90;;;;;;5008130;28;20243;-75
2022/08/27 06:48:20;;;;;;;2.25;2.15;;;21.50;99.90;;;;;;5008357;28;20294;-75
2022/08/27 06:50:47;;;;;;;2.15;2.05;;;21.40;99.90;;;;;;5007093;28;20304;-75
2022/08/27 06:53:14;;;;;;;2.50;2.10;;;21.30;99.90;;;;;;5006055;28;20283;-75
2022/08/27 06:55:42;;;;;;;2.08;1.85;;;21.30;99.90;;;;;;5000280;28;20228;-76
2022/08/27 06:58:09;;;;;;;2.40;2.17;;;21.30;99.90;;;;;;5000342;28;20756;-76
2022/08/27 07:00:38;;;;;;;2.50;1.90;;;21.30;99.90;;;;;;5001610;28;20220;-76
2022/08/27 07:03:06;;;;;;;2.45;2.25;;;21.40;99.90;;;;;;5006752;28;20227;-76
2022/08/27 07:05:33;;;;;;;3.40;2.35;;;21.40;99.90;;;;;;5008296;28;20221;-76
2022/08/27 07:08:00;;;;;;;2.38;2.20;;;21.50;99.90;;;;;;5007821;28;20208;-79
2022/08/27 07:10:28;;;;;;;4.50;2.63;;;21.50;99.90;;;;;;5004464;28;20223;-76
2022/08/27 07:12:56;;;;;;;7.70;3.20;;;21.50;99.90;;;;;;5002985;28;20197;-76
2022/08/27 07:15:24;;;;;;;2.80;2.45;;;21.50;99.90;;;;;;5007034;28;20428;-76
2022/08/27 07:17:52;;;;;;;2.50;2.22;;;21.60;99.90;;;;;;5004393;28;20212;-76
2022/08/27 07:20:21;;;;;;;2.50;2.28;;;21.90;99.90;;;;;;5006245;28;20220;-76
2022/08/27 07:22:48;;;;;;;2.45;2.25;;;22.10;99.90;;;;;;5006960;28;20578;-76
2022/08/27 07:25:19;;;;;;;4.32;2.35;;;22.30;99.90;;;;;;5007836;28;20224;-75
2022/08/27 07:27:46;;;;;;;2.60;2.40;;;22.30;99.90;;;;;;5001084;28;20197;-75
2022/08/27 07:30:15;;;;;;;2.08;1.95;;;22.10;99.90;;;;;;5003769;28;20223;-75
2022/08/27 07:32:42;;;;;;;2.40;2.20;;;22.10;99.90;;;;;;5004966;28;20220;-75
2022/08/27 07:35:11;;;;;;;3.70;2.63;;;22.20;99.90;;;;;;5007442;28;20223;-75
2022/08/27 07:37:40;;;;;;;2.35;2.15;;;22.40;99.90;;;;;;5000362;28;20203;-76
2022/08/27 07:40:10;;;;;;;5.22;2.20;;;22.60;99.90;;;;;;5005390;28;20227;-75
2022/08/27 07:45:21;;;;;;;2.30;2.10;;;22.50;99.90;;;;;;5005907;28;20318;-74
2022/08/27 07:47:49;;;;;;;2.08;1.88;;;22.20;99.90;;;;;;5011569;28;20196;-75
2022/08/27 07:50:17;;;;;;;2.58;2.33;;;21.90;99.90;;;;;;5008226;28;20247;-76
2022/08/27 07:52:44;;;;;;;2.45;2.15;;;21.80;99.90;;;;;;5005316;28;20208;-76
2022/08/27 07:55:12;;;;;;;2.88;2.17;;;21.90;99.90;;;;;;5004746;28;20220;-76
2022/08/27 07:57:40;;;;;;;7.05;2.97;;;22.10;99.90;;;;;;5006527;28;20258;-75
2022/08/27 08:00:10;;;;;;;2.22;2.03;;;22.10;99.90;;;;;;5001902;28;20607;-75
2022/08/27 08:02:38;;;;;;;2.20;2.00;;;22.20;99.90;;;;;;5001752;28;20683;-75
2022/08/27 08:05:06;;;;;;;4.95;2.00;;;22.20;99.90;;;;;;5001848;28;20239;-75
2022/08/27 08:07:37;;;;;;;2.53;2.03;;;22.30;99.90;;;;;;5000568;28;20212;-75
2022/08/27 08:10:06;;;;;;;2.47;2.00;;;22.30;99.90;;;;;;5001603;28;20789;-76
2022/08/27 08:12:35;;;;;;;2.03;1.92;;;22.30;99.90;;;;;;5004453;28;20207;-77
2022/08/27 08:15:03;;;;;;;2.10;1.92;;;22.50;99.90;;;;;;5000382;28;20365;-75
2022/08/27 08:17:33;;;;;;;3.08;2.38;;;22.50;99.90;;;;;;5014816;28;20195;-76
2022/08/27 08:20:00;;;;;;;2.42;2.22;;;22.70;99.90;;;;;;5000442;28;20599;-77
2022/08/27 08:22:27;;;;;;;3.45;2.65;;;23.00;99.90;;;;;;5007431;28;20192;-76
2022/08/27 08:24:57;;;;;;;2.13;2.00;;;23.30;99.90;;;;;;4999379;28;20599;-75
2022/08/27 08:27:24;;;;;;;2.20;2.10;;;23.50;99.90;;;;;;5003730;28;22179;-75
2022/08/27 08:29:51;;;;;;;2.53;1.85;;;23.60;99.90;;;;;;5003716;28;20216;-77
2022/08/27 08:32:20;;;;;;;2.00;1.80;;;23.50;99.90;;;;;;5015894;28;20207;-77
2022/08/27 08:34:47;;;;;;;3.05;2.05;;;23.70;99.90;;;;;;5004892;28;20216;-76
2022/08/27 08:37:15;;;;;;;4.22;2.33;;;23.60;99.90;;;;;;5011941;28;20235;-77
2022/08/27 08:39:42;;;;;;;2.38;2.17;;;23.70;99.90;;;;;;5010124;28;20220;-76
2022/08/27 08:42:25;;;;;;;2.47;1.90;;;23.70;99.90;;;;;;5015369;28;20196;-77
2022/08/27 08:44:53;;;;;;;2.85;2.08;;;23.70;99.90;;;;;;5019274;28;20257;-77
2022/08/27 08:47:25;;;;;;;1.98;1.85;;;23.80;99.90;;;;;;5019986;28;20200;-77
2022/08/27 08:49:58;;;;;;;2.78;2.00;;;24.00;99.90;;;;;;5021282;28;20231;-77
2022/08/27 08:52:32;;;;;;;2.22;2.05;;;24.40;99.90;;;;;;5021640;28;20200;-77
2022/08/27 08:55:08;;;;;;;2.33;2.13;;;24.40;99.90;;;;;;5018708;28;20229;-77
2022/08/27 08:57:43;;;;;;;2.55;2.13;;;24.20;99.90;;;;;;5019132;28;20200;-77
2022/08/27 09:00:12;;;;;;;3.13;2.00;;;24.40;99.90;;;;;;5014765;28;20237;-78
2022/08/27 09:02:41;;;;;;;2.00;1.65;;;24.50;99.90;;;;;;5004119;28;20203;-77
2022/08/27 09:05:10;;;;;;;2.10;1.85;;;24.50;99.90;;;;;;5008715;28;20232;-77
2022/08/27 09:07:44;;;;;;;1.98;1.85;;;24.30;99.90;;;;;;5007913;28;20200;-78
2022/08/27 09:10:18;;;;;;;1.80;1.70;;;24.10;99.90;;;;;;5010104;28;20467;-77
2022/08/27 09:12:46;;;;;;;2.33;2.15;;;23.90;99.90;;;;;;5012171;28;20239;-77
2022/08/27 09:15:16;;;;;;;1.92;1.77;;;23.60;99.90;;;;;;5005949;28;20267;-77
2022/08/27 09:17:44;;;;;;;3.63;1.85;;;23.40;99.90;;;;;;5007773;28;20255;-77
2022/08/27 09:20:12;;;;;;;1.90;1.80;;;23.20;99.90;;;;;;5007627;28;20575;-77
2022/08/27 09:22:48;;;;;;;3.85;2.20;;;23.10;99.90;;;;;;5005520;28;20200;-77
2022/08/27 09:25:20;;;;;;;2.55;2.30;;;22.90;99.90;;;;;;5011326;28;20220;-77
2022/08/27 09:27:51;;;;;;;2.25;2.00;;;22.60;99.90;;;;;;5005384;28;20196;-77
2022/08/27 09:30:21;;;;;;;2.10;2.00;;;22.50;99.90;;;;;;5011661;28;20756;-77
2022/08/27 09:32:55;;;;;;;1.90;1.80;;;22.40;99.90;;;;;;5012663;28;20220;-77
2022/08/27 09:35:24;;;;;;;2.33;1.83;;;22.40;99.90;;;;;;5015843;28;20275;-76
2022/08/27 09:37:55;;;;;;;1.98;1.83;;;22.40;99.90;;;;;;5007454;28;20215;-76
2022/08/27 09:40:30;;;;;;;1.83;1.73;;;22.30;99.90;;;;;;5013038;28;20223;-76
2022/08/27 09:43:06;;;;;;;1.75;1.65;;;22.20;99.90;;;;;;5013890;28;20203;-77
2022/08/27 09:45:35;;;;;;;2.67;1.80;;;22.30;99.90;;;;;;5016287;28;20319;-77
2022/08/27 09:48:07;;;;;;;2.78;1.70;;;22.30;99.90;;;;;;5007933;28;20212;-76
2022/08/27 09:50:38;;;;;;;2.15;2.03;;;22.30;99.90;;;;;;5017158;28;20240;-77
2022/08/27 09:53:19;;;;;;;2.22;2.10;;;22.30;99.90;;;;;;5015548;28;20839;-76
2022/08/27 09:55:49;;;;;;;2.15;1.80;;;22.20;99.90;;;;;;5013446;28;20227;-76
2022/08/27 09:58:23;;;;;;;3.72;2.38;;;22.20;99.90;;;;;;5013866;28;20234;-76
2022/08/27 10:01:00;;;;;;;2.40;2.20;;;22.10;99.90;;;;;;5012087;28;20577;-77
2022/08/27 10:03:27;;;;;;;2.50;2.08;;;22.00;99.90;;;;;;5013963;28;20207;-76
2022/08/27 10:05:54;;;;;;;2.30;2.10;;;22.00;99.90;;;;;;5015944;28;20220;-76
2022/08/27 10:08:27;;;;;;;3.45;2.47;;;21.90;99.90;;;;;;5014388;28;20211;-77
2022/08/27 10:10:57;;;;;;;4.15;2.78;;;21.90;99.90;;;;;;5012329;28;20236;-76
2022/08/27 10:13:31;;;;;;;2.53;2.33;;;21.90;99.90;;;;;;5017914;28;20667;-77
2022/08/27 10:16:14;;;;;;;2.35;2.20;;;21.80;99.90;;;;;;5020239;28;20219;-77
2022/08/27 10:18:55;;;;;;;3.15;1.95;;;21.70;99.90;;;;;;5024532;28;20211;-78
2022/08/27 10:21:34;;;;;;;2.00;1.90;;;21.70;99.90;;;;;;5021386;28;20238;-77
2022/08/27 10:24:12;;;;;;;1.95;1.85;;;21.80;99.90;;;;;;5021874;28;20970;-77
2022/08/27 10:26:46;;;;;;;1.92;1.80;;;21.80;99.90;;;;;;5021388;28;20224;-79
2022/08/27 10:29:25;;;;;;;1.90;1.80;;;21.80;99.90;;;;;;5010153;28;20211;-76
2022/08/27 10:32:04;;;;;;;2.30;2.10;;;21.70;99.90;;;;;;5014013;28;20204;-77
2022/08/27 10:34:40;;;;;;;2.33;2.13;;;21.60;99.90;;;;;;5017449;28;20240;-76
2022/08/27 10:37:21;;;;;;;2.47;2.28;;;21.40;99.90;;;;;;5014477;28;20235;-76
2022/08/27 10:40:05;;;;;;;1.98;1.88;;;21.30;99.90;;;;;;5015937;28;20220;-76
2022/08/27 10:42:37;;;;;;;3.55;2.72;;;21.20;99.90;;;;;;5012124;28;21570;-75
2022/08/27 10:45:16;;;;;;;3.15;2.55;;;21.10;99.90;;;;;;5015410;28;20236;-77
2022/08/27 10:48:00;;;;;;;2.10;2.00;;;21.00;99.90;;;;;;5019797;28;20200;-76
2022/08/27 10:50:33;;;;;;;3.40;2.45;;;20.90;99.90;;;;;;5022981;28;20312;-76
2022/08/27 10:53:06;;;;;;;2.20;2.10;;;20.90;99.90;;;;;;5022102;28;20199;-77
2022/08/27 10:55:38;;;;;;;2.15;2.05;;;20.90;99.90;;;;;;5022011;28;20228;-76
2022/08/27 10:58:20;;;;;;;4.53;2.58;;;20.90;99.90;;;;;;5021568;28;20204;-76
2022/08/27 11:00:58;;;;;;;2.83;2.60;;;20.60;99.90;;;;;;5018899;28;20247;-77
2022/08/27 11:03:34;;;;;;;2.85;2.65;;;20.40;99.90;;;;;;5027020;28;20200;-75
2022/08/27 11:06:06;;;;;;;3.03;2.83;;;20.30;99.90;;;;;;5024202;28;20238;-76
2022/08/27 11:08:39;;;;;;;3.00;2.80;;;20.30;99.90;;;;;;5025497;28;20188;-76
2022/08/27 11:11:10;;;;;;;3.33;3.03;;;20.20;99.90;;;;;;5017349;28;20613;-78
2022/08/27 11:13:44;;;;;;;3.72;3.20;;;20.20;99.90;;;;;;5027293;28;20216;-76
2022/08/27 11:16:15;;;;;;;2.80;2.60;;;20.20;99.90;;;;;;5023258;28;20224;-76
2022/08/27 11:18:47;;;;;;;2.30;2.20;;;20.30;99.90;;;;;;5019094;28;20643;-76
2022/08/27 11:21:22;;;;;;;2.55;2.33;;;20.50;99.90;;;;;;5022589;28;20644;-77
2022/08/27 11:23:54;;;;;;;2.58;2.38;;;20.70;99.90;;;;;;5022454;28;20198;-77
2022/08/27 11:26:21;;;;;;;2.60;2.13;;;20.90;99.90;;;;;;5016778;28;20224;-76
2022/08/27 11:28:52;;;;;;;2.50;2.30;;;21.10;99.90;;;;;;5022785;28;20204;-76
2022/08/27 11:31:28;;;;;;;2.35;2.15;;;21.20;99.90;;;;;;5022311;28;20220;-78
2022/08/27 11:34:02;;;;;;;2.65;2.45;;;21.20;99.90;;;;;;5023283;28;20202;-76
2022/08/27 11:36:53;;;;;;;2.80;2.60;;;21.20;99.90;;;;;;5023663;28;20223;-76
2022/08/27 11:39:34;;;;;;;4.10;3.33;;;21.20;99.90;;;;;;5022179;28;20196;-77
2022/08/27 11:42:09;;;;;;;3.15;2.92;;;20.80;99.90;;;;;;5021461;28;20207;-77
2022/08/27 11:44:42;;;;;;;2.33;2.13;;;20.70;99.90;;;;;;5025364;28;20227;-76
2022/08/27 11:47:13;;;;;;;2.20;2.10;;;20.80;99.90;;;;;;5018604;28;20228;-77
2022/08/27 11:49:48;;;;;;;1.92;1.83;;;21.00;99.90;;;;;;5018113;28;20224;-76
2022/08/27 11:52:23;;;;;;;2.20;2.10;;;21.20;99.90;;;;;;5017921;28;20220;-76
2022/08/27 11:54:52;;;;;;;2.35;2.15;;;21.40;99.90;;;;;;5018150;28;20230;-77
2022/08/27 11:57:31;;;;;;;2.25;2.13;;;21.60;99.90;;;;;;5019024;28;20215;-76
2022/08/27 12:00:00;;;;;;;2.17;2.05;;;21.60;99.90;;;;;;5018603;28;20219;-77
2022/08/27 12:02:31;;;;;;;2.28;2.17;;;21.70;99.90;;;;;;5015327;28;20193;-76
2022/08/27 12:05:09;;;;;;;2.88;2.67;;;21.90;99.90;;;;;;5017329;28;20224;-76
2022/08/27 12:07:38;;;;;;;3.20;2.90;;;21.80;99.90;;;;;;5017549;28;20193;-76
2022/08/27 12:10:31;;;;;;;2.80;2.60;;;21.60;99.90;;;;;;5017044;28;20224;-76
2022/08/27 12:13:12;;;;;;;3.00;2.80;;;21.50;99.90;;;;;;5019786;28;20287;-76
2022/08/27 12:15:55;;;;;;;3.28;2.97;;;21.60;99.90;;;;;;5017071;28;20216;-76
2022/08/27 12:18:40;;;;;;;3.10;2.80;;;21.50;99.90;;;;;;5013271;28;20208;-76
2022/08/27 12:21:19;;;;;;;2.80;2.60;;;21.50;99.90;;;;;;5019770;28;20227;-76
2022/08/27 12:23:59;;;;;;;2.83;2.60;;;21.60;99.90;;;;;;5021835;28;20206;-77
2022/08/27 12:26:33;;;;;;;3.10;2.80;;;21.60;99.90;;;;;;5017153;28;20231;-76
2022/08/27 12:29:40;;;;;;;3.85;2.63;;;21.70;99.90;;;;;;5014095;28;20806;-75
2022/08/27 12:32:25;;;;;;;3.30;3.00;;;21.70;99.90;;;;;;5014559;28;20257;-76
2022/08/27 12:35:01;;;;;;;3.47;3.17;;;21.60;99.90;;;;;;5016544;28;20224;-76
2022/08/27 12:37:31;;;;;;;3.75;3.45;;;21.50;99.90;;;;;;5014508;28;20211;-76
2022/08/27 12:40:03;;;;;;;4.75;3.80;;;21.30;99.90;;;;;;5016015;28;20250;-77
2022/08/27 12:42:30;;;;;;;3.58;3.28;;;21.20;99.90;;;;;;5016828;28;20211;-77
2022/08/27 12:44:59;;;;;;;3.67;3.38;;;21.10;99.90;;;;;;5016234;28;20217;-76
2022/08/27 12:47:27;;;;;;;4.00;3.70;;;21.10;99.90;;;;;;5020170;28;20234;-77
2022/08/27 12:49:58;;;;;;;3.80;3.50;;;21.10;99.90;;;;;;5025479;28;20226;-78
2022/08/27 12:52:45;;;;;;;4.32;3.92;;;21.10;99.90;;;;;;5024483;28;20192;-81
2022/08/27 12:55:22;;;;;;;4.10;3.80;;;21.00;99.90;;;;;;5019307;28;20277;-77
2022/08/27 12:57:56;;;;;;;3.47;3.25;;;21.00;99.90;;;;;;5012862;28;20264;-78
2022/08/27 13:00:24;;;;;;;3.25;3.05;;;21.00;99.90;;;;;;5026733;28;20217;-78
2022/08/27 13:03:17;;;;;;;3.20;3.00;;;21.00;99.90;;;;;;5018004;28;20303;-79
2022/08/27 13:05:48;;;;;;;3.40;3.10;;;21.10;99.90;;;;;;5013127;28;20224;-78
2022/08/27 13:08:21;;;;;;;3.50;3.20;;;21.20;99.90;;;;;;5013556;28;20200;-81
2022/08/27 13:10:49;;;;;;;4.43;3.20;;;21.20;99.90;;;;;;5017203;28;20299;-79
2022/08/27 13:13:18;;;;;;;4.70;3.53;;;21.20;99.90;;;;;;5017559;28;20202;-78